Latest Weather Observations for Rabbit Flat

IDD60801

Issued at 7:01 pm CST Saturday 2 July 2016 (issued every 30 minutes, with the page automatically refreshed every 10 minutes)

About weather observations | Map of weather stations | Latest weather observations for NT | Other Formats
Station Details ID: 015666 Name: RABBIT FLAT Lat: -20.18 Lon: 130.01 Height: 340.0 m
Data from the previous 72 hours. | See also: Recent months at Rabbit Flat
Date/Time
CST
Temp
°C
App
Temp
°C
Dew
Point
°C
Rel
Hum
%
Delta-T
°C
Wind Press
QNH
hPa
Press
MSL
hPa
Rain since
9am
mm
Dir  Spd
km/h
Gust
km/h
Spd
kts
Gust
kts
02/07:00pm 22.1 - 5.2 33 8.5 - - - - - 1021.0 - 0.0
02/06:30pm 22.9 - 5.1 31 9.0 - - - - - 1020.9 - 0.0
02/06:00pm 24.0 - 5.2 29 9.6 - - - - - 1020.6 1020.0 0.0
02/05:30pm 25.1 - 5.6 28 10.1 - - - - - 1020.6 - 0.0
02/05:00pm 25.6 - 5.2 27 10.5 - - - - - 1020.5 - 0.0
02/04:30pm 26.1 - 5.8 27 10.6 - - - - - 1020.6 - 0.0
02/04:00pm 26.4 - 6.0 27 10.7 - - - - - 1020.7 - 0.0
02/03:30pm 26.2 - 5.1 26 10.9 - - - - - 1020.7 - 0.0
02/03:00pm 26.0 - 5.9 27 10.5 - - - - - 1021.0 1020.4 0.0
02/02:30pm 25.7 - 5.1 26 10.6 - - - - - 1021.4 - 0.0
02/02:00pm 25.7 - 5.1 26 10.6 - - - - - 1021.6 - 0.0
02/01:30pm 24.9 - 5.8 29 9.9 - - - - - 1022.3 - 0.0
02/01:00pm 24.2 - 5.2 29 9.7 - - - - - 1022.8 - 0.0
02/12:30pm 23.6 - 5.1 30 9.4 - - - - - 1023.2 - 0.0
02/12:00pm 23.9 - 5.0 29 9.6 - - - - - 1023.6 - 0.0
02/11:30am 22.4 - 4.8 31 8.8 - - - - - 1023.9 - 0.0
02/11:00am 22.3 - 4.4 31 8.9 - - - - - 1023.9 - 0.0
02/10:30am 21.1 - 4.5 33 8.2 - - - - - 1024.6 - 0.0
02/10:00am 20.5 - 3.8 33 8.1 - - - - - 1024.7 - 0.0
02/09:30am 19.7 - 4.3 36 7.5 - - - - - 1024.6 - 0.0
02/09:00am 19.1 - 4.5 38 7.1 - - - - - 1024.5 1024.0 0.0
02/08:30am 18.4 - 4.3 39 6.8 - - - - - 1024.1 - 0.0
02/08:00am 18.2 - 4.0 39 6.8 - - - - - 1023.5 - 0.0
02/07:30am 17.4 - 4.2 41 6.3 - - - - - 1023.3 - 0.0
02/07:00am 17.6 - 4.2 41 6.4 - - - - - 1023.1 - 0.0
02/06:30am 16.7 - 4.0 43 6.0 - - - - - 1022.7 - 0.0
02/06:00am 17.1 - 4.1 42 6.2 - - - - - 1022.3 1021.7 0.0
02/05:30am 16.5 - 4.3 44 5.8 - - - - - 1021.7 - 0.0
02/05:00am 17.4 - 4.5 42 6.2 - - - - - 1021.7 - 0.0
02/04:30am 17.9 - 4.7 41 6.4 - - - - - 1021.6 - 0.0
02/04:00am 18.3 - 4.7 40 6.6 - - - - - 1021.5 - 0.0
02/03:30am 19.2 - 4.4 37 7.2 - - - - - 1021.1 - 0.0
02/03:00am 19.8 - 3.9 35 7.7 - - - - - 1021.2 1020.6 0.0
02/02:30am 19.8 - 3.6 34 7.8 - - - - - 1021.4 - 0.0
02/02:00am 20.0 - 3.6 34 7.9 - - - - - 1021.3 - 0.0
02/01:30am 20.7 - 3.2 31 8.4 - - - - - 1021.0 - 0.0
02/01:00am 21.6 - 2.9 29 9.0 - - - - - 1021.3 - 0.0
02/12:30am 22.0 - 2.9 28 9.2 - - - - - 1021.6 - 0.0
02/12:00am 22.2 - 2.6 27 9.4 - - - - - 1021.5 1020.9 0.0
 
Date/Time
CST
Temp
°C
App
Temp
°C
Dew
Point
°C
Rel
Hum
%
Delta-T
°C
Wind Press
QNH
hPa
Press
MSL
hPa
Rain since
9am
mm
Dir  Spd
km/h
Gust
km/h
Spd
kts
Gust
kts
01/11:30pm 22.8 - 2.4 26 9.8 - - - - - 1021.7 - 0.0
01/11:00pm 22.8 - 4.0 29 9.3 - - - - - 1021.8 - 0.0
01/10:30pm 23.0 - 3.7 28 9.5 - - - - - 1021.8 - 0.0
01/10:00pm 22.4 - 5.1 32 8.7 - - - - - 1022.3 - 0.0
01/09:30pm 23.0 - 4.7 30 9.2 - - - - - 1022.1 - 0.0
01/09:00pm 24.3 - 4.8 28 9.9 - - - - - 1021.5 1020.9 0.0
01/08:30pm 24.9 - 4.3 26 10.4 - - - - - 1021.2 - 0.0
01/08:00pm 25.0 - 4.5 26 10.4 - - - - - 1020.3 - 0.0
01/07:30pm 25.3 - 5.0 27 10.4 - - - - - 1020.3 - 0.0
01/07:00pm 25.7 - 5.4 27 10.5 - - - - - 1019.8 - 0.0
01/06:30pm 26.2 - 5.4 26 10.8 - - - - - 1019.5 - 0.0
01/06:00pm 26.8 - 4.3 23 11.5 - - - - - 1019.2 1018.5 0.0
01/05:30pm 27.1 - 4.5 23 11.6 - - - - - 1019.0 - 0.0
01/05:00pm 27.5 - 4.3 22 11.9 - - - - - 1018.8 - 0.0
01/04:30pm 27.6 - 4.5 22 11.9 - - - - - 1018.8 - 0.0
01/04:00pm 27.8 - 4.3 22 12.1 - - - - - 1018.2 - 0.0
01/03:30pm 27.8 - 3.9 21 12.2 - - - - - 1017.9 - 0.0
01/03:00pm 28.4 - 4.4 21 12.4 - - - - - 1018.2 1017.6 0.0
01/02:30pm 28.6 - 3.8 20 12.7 - - - - - 1018.6 - 0.0
01/02:00pm 28.3 - 3.6 20 12.6 - - - - - 1019.0 - 0.0
01/01:30pm 28.6 - 4.2 21 12.6 - - - - - 1019.7 - 0.0
01/01:00pm 27.9 - 3.1 20 12.5 - - - - - 1020.3 - 0.0
01/12:30pm 27.9 - 3.1 20 12.5 - - - - - 1020.7 - 0.0
01/12:00pm 27.3 - 2.9 20 12.2 - - - - - 1021.0 1020.4 0.0
01/11:30am 27.3 - 2.2 19 12.4 - - - - - 1021.1 - 0.0
01/11:00am 25.5 - 1.3 20 11.6 - - - - - 1021.4 - 0.0
01/10:30am 26.2 - -0.3 17 12.4 - - - - - 1021.7 - 0.0
01/10:00am 24.8 - -1.0 18 11.8 - - - - - 1021.7 - 0.0
01/09:30am 22.9 - -0.3 21 10.6 - - - - - 1021.5 - 0.0
01/09:00am 20.1 - 0.1 26 9.0 - - - - - 1021.2 1020.6 0.0
01/08:30am 18.9 - 0.4 29 8.3 - - - - - 1021.1 - 0.0
01/08:00am 17.9 - 0.7 31 7.7 - - - - - 1021.0 - 0.0
01/07:30am 17.5 - 0.3 31 7.6 - - - - - 1020.5 - 0.0
01/07:00am 18.0 - -0.2 29 8.0 - - - - - 1019.8 - 0.0
01/06:30am 18.1 - 0.0 29 8.0 - - - - - 1019.6 - 0.0
01/06:00am 17.6 - 0.1 30 7.7 - - - - - 1019.3 1018.6 0.0
01/05:30am 15.8 - 2.4 40 6.1 - - - - - 1019.7 - 0.0
01/05:00am 16.4 - 1.8 37 6.6 - - - - - 1020.0 - 0.0
01/04:30am 17.2 - 1.2 34 7.2 - - - - - 1020.2 - 0.0
01/04:00am 16.7 - 1.3 35 6.9 - - - - - 1020.3 - 0.0
01/03:30am 15.1 - 2.5 42 5.7 - - - - - 1019.7 - 0.0
01/03:00am 14.0 - 3.6 49 4.8 - - - - - 1019.8 1019.2 0.0
01/02:30am 13.5 - 4.0 52 4.4 - - - - - 1019.8 - 0.0
01/02:00am 13.8 - 2.4 46 5.1 - - - - - 1020.1 - 0.0
01/01:30am 14.0 - 1.8 43 5.4 - - - - - 1019.8 - 0.0
01/01:00am 12.6 - 1.6 47 4.8 - - - - - 1019.3 - 0.0
01/12:30am 13.1 - 3.4 51 4.4 - - - - - 1019.9 - 0.0
01/12:00am 12.9 - 3.2 51 4.4 - - - - - 1020.1 1019.5 0.0
 
Date/Time
CST
Temp
°C
App
Temp
°C
Dew
Point
°C
Rel
Hum
%
Delta-T
°C
Wind Press
QNH
hPa
Press
MSL
hPa
Rain since
9am
mm
Dir  Spd
km/h
Gust
km/h
Spd
kts
Gust
kts
30/11:30pm 13.2 - 2.1 47 4.9 - - - - - 1020.1 - 0.0
30/11:00pm 14.0 - 1.2 41 5.6 - - - - - 1019.7 - 0.0
30/10:30pm 14.8 - 1.1 39 6.0 - - - - - 1019.8 - 0.0
30/10:00pm 17.2 - 1.5 34 7.1 - - - - - 1019.6 - 0.0
30/09:30pm 16.8 - 1.1 34 7.0 - - - - - 1019.6 - 0.0
30/09:00pm 17.5 - 2.3 36 7.0 - - - - - 1019.3 1018.6 0.0
30/08:30pm 19.5 - 2.1 31 8.1 - - - - - 1019.0 - 0.0
30/08:00pm 21.2 - 3.8 32 8.5 - - - - - 1018.6 - 0.0
30/07:30pm 22.9 - 1.9 25 10.0 - - - - - 1018.2 - 0.0
30/07:00pm 24.3 - 1.1 22 11.0 - - - - - 1017.9 - 0.0
30/06:30pm 25.4 - 1.6 21 11.5 - - - - - 1017.6 - 0.0
30/06:00pm 27.4 - 1.0 18 12.8 - - - - - 1017.3 1016.6 0.0
30/05:30pm 28.5 - 1.9 18 13.2 - - - - - 1017.2 - 0.0
30/05:00pm 29.0 - 1.8 17 13.5 - - - - - 1017.1 - 0.0
30/04:30pm 29.5 - 1.0 16 14.0 - - - - - 1017.0 - 0.0
30/04:00pm 29.0 - -0.2 15 14.0 - - - - - 1017.1 - 0.0
30/03:30pm 29.0 - -1.0 14 14.2 - - - - - 1017.2 - 0.0
30/03:00pm 29.5 - -1.1 13 14.5 - - - - - 1017.4 1016.7 0.0
30/02:30pm 28.7 - -3.8 12 14.6 - - - - - 1017.8 - 0.0
30/02:00pm 28.4 - -6.5 10 14.9 - - - - - 1018.2 - 0.0
30/01:30pm 28.5 - -5.6 10 14.8 - - - - - 1018.8 - 0.0
30/01:00pm 26.9 - -7.3 10 14.2 - - - - - 1019.4 - 0.0
30/12:30pm 26.1 - -4.7 13 13.3 - - - - - 1019.9 - 0.0
30/12:00pm 24.8 - -2.8 16 12.2 - - - - - 1020.6 1019.9 0.0
30/11:30am 24.4 - -3.3 15 12.1 - - - - - 1021.0 - 0.0
30/11:00am 23.5 - -3.2 16 11.6 - - - - - 1021.3 - 0.0
30/10:30am 21.8 - -3.3 18 10.7 - - - - - 1021.6 - 0.0
30/10:00am 20.3 - -2.3 21 9.7 - - - - - 1021.9 - 0.0
30/09:30am 17.9 - -2.4 25 8.5 - - - - - 1021.9 - 0.0
30/09:00am 15.2 - -2.1 30 7.1 - - - - - 1021.8 1021.2 0.0
30/08:30am 12.4 - -1.1 39 5.5 - - - - - 1021.7 - 0.0
30/08:00am 7.8 - 0.1 58 3.1 - - - - - 1021.5 - 0.0
30/07:30am 5.8 - -0.7 63 2.5 - - - - - 1021.3 - 0.0
30/07:00am 5.7 - -1.1 61 2.6 - - - - - 1021.1 - 0.0
30/06:30am 5.5 - -1.1 62 2.5 - - - - - 1020.9 - 0.0
30/06:00am 5.9 - -1.5 59 2.8 - - - - - 1020.7 1020.0 0.0
30/05:30am 6.6 - -1.6 56 3.1 - - - - - 1020.6 - 0.0
30/05:00am 7.2 - -0.4 58 3.0 - - - - - 1020.5 - 0.0
30/04:30am 8.8 - -1.1 50 3.9 - - - - - 1020.4 - 0.0
30/04:00am 8.4 - 0.2 56 3.3 - - - - - 1020.3 - 0.0
30/03:30am 8.9 - -1.3 49 4.0 - - - - - 1020.2 - 0.0
30/03:00am 7.4 - -0.5 57 3.1 - - - - - 1020.1 1019.4 0.0
30/02:30am 7.9 - -1.7 50 3.7 - - - - - 1020.1 - 0.0
30/02:00am 8.4 - -1.4 50 3.8 - - - - - 1020.4 - 0.0
30/01:30am 8.5 - -1.5 49 3.9 - - - - - 1020.5 - 0.0
30/01:00am 8.7 - -2.3 46 4.2 - - - - - 1020.5 - 0.0
30/12:30am 9.1 - -2.0 45 4.3 - - - - - 1020.8 - 0.0
30/12:00am 10.1 - -1.9 43 4.7 - - - - - 1020.8 1020.1 0.0
 
Date/Time
CST
Temp
°C
App
Temp
°C
Dew
Point
°C
Rel
Hum
%
Delta-T
°C
Wind Press
QNH
hPa
Press
MSL
hPa
Rain since
9am
mm
Dir  Spd
km/h
Gust
km/h
Spd
kts
Gust
kts
29/11:30pm 12.0 - -3.2 34 5.9 - - - - - 1020.7 - 0.0
29/11:00pm 10.2 - -0.7 46 4.4 - - - - - 1020.6 - 0.0
29/10:30pm 11.0 - -0.8 44 4.8 - - - - - 1020.5 - 0.0
29/10:00pm 11.5 - -1.4 40 5.2 - - - - - 1020.5 - 0.0
29/09:30pm 12.6 - -1.8 36 5.8 - - - - - 1020.5 - 0.0
29/09:00pm 12.9 - -0.2 40 5.5 - - - - - 1020.3 1019.6 0.0
29/08:30pm 14.5 - -1.1 34 6.5 - - - - - 1020.0 - 0.0
29/08:00pm 16.4 - 0.8 34 6.9 - - - - - 1019.7 - 0.0
29/07:30pm 18.1 - 0.0 29 8.0 - - - - - 1019.4 - 0.0

Other Formats:

Comma delimited format used in spreadsheet applications
http://www.bom.gov.au/fwo/IDD60801/IDD60801.95322.axf

JavaScript Object Notation format (JSON) in row-major order
http://www.bom.gov.au/fwo/IDD60801/IDD60801.95322.json